Time;durP1;ratioP1;P1;durP2;ratioP2;P2;SDS_P1;SDS_P2;PMS_P1;PMS_P2;Temp;Humidity;BMP_temperature;BMP_pressure;BME280_temperature;BME280_humidity;BME280_pressure;Samples;Min_cycle;Max_cycle;Signal;HPM_P1;HPM_P2
2022/08/21 00:00:27;;;;;;;19.10;8.15;;;;;;;15.82;74.71;101395.66;5024089;28;20014;-70
2022/08/21 00:03:02;;;;;;;18.17;7.40;;;;;;;15.78;74.07;101405.25;5028555;28;20045;-70
2022/08/21 00:05:29;;;;;;;22.45;8.55;;;;;;;15.78;74.80;101397.06;5029454;28;20428;-73
2022/08/21 00:07:55;;;;;;;25.27;8.15;;;;;;;15.77;75.32;101398.06;5023683;28;20104;-72
2022/08/21 00:10:21;;;;;;;20.35;9.18;;;;;;;15.75;75.24;101405.59;5031173;28;20102;-73
2022/08/21 00:12:47;;;;;;;15.20;7.88;;;;;;;15.70;75.40;101397.94;5028130;28;20381;-72
2022/08/21 00:15:16;;;;;;;19.33;8.18;;;;;;;15.48;76.89;101394.09;5028704;28;20025;-71
2022/08/21 00:17:41;;;;;;;21.27;8.05;;;;;;;15.57;75.92;101396.78;5025513;28;20021;-73
2022/08/21 00:20:09;;;;;;;16.67;7.75;;;;;;;15.61;75.80;101387.22;5026384;28;20036;-72
2022/08/21 00:22:35;;;;;;;24.33;8.93;;;;;;;15.65;75.65;101394.91;5024028;28;20067;-72
2022/08/21 00:25:02;;;;;;;17.52;8.27;;;;;;;15.63;75.18;101385.19;5040560;28;20055;-71
2022/08/21 00:27:27;;;;;;;21.98;9.27;;;;;;;15.59;75.42;101383.81;5023430;28;20092;-72
2022/08/21 00:29:53;;;;;;;23.05;8.85;;;;;;;15.55;75.47;101377.00;5024073;28;20120;-72
2022/08/21 00:32:24;;;;;;;16.58;7.78;;;;;;;15.55;75.61;101377.00;5021037;28;20029;-72
2022/08/21 00:34:51;;;;;;;22.13;8.80;;;;;;;15.34;76.62;101378.47;5024797;28;20029;-71
2022/08/21 00:37:16;;;;;;;15.10;8.50;;;;;;;15.24;77.05;101375.09;5022913;28;20060;-71
2022/08/21 00:39:41;;;;;;;19.33;7.38;;;;;;;15.26;77.69;101373.06;5018376;28;20041;-71
2022/08/21 00:42:07;;;;;;;21.00;8.40;;;;;;;15.25;76.41;101365.88;5023925;28;20083;-71
2022/08/21 00:44:32;;;;;;;16.80;7.32;;;;;;;15.31;76.58;101370.63;5026144;28;20051;-71
2022/08/21 00:46:58;;;;;;;23.48;8.20;;;;;;;15.37;76.36;101375.38;5027759;28;20021;-71
2022/08/21 00:49:23;;;;;;;16.92;7.97;;;;;;;15.36;77.08;101373.69;5043373;28;20025;-71
2022/08/21 00:51:53;;;;;;;18.35;7.65;;;;;;;15.32;76.95;101369.63;5026893;28;20064;-72
2022/08/21 00:54:22;;;;;;;21.17;7.95;;;;;;;15.12;77.92;101365.59;5027917;28;20017;-71
2022/08/21 00:56:52;;;;;;;16.90;7.30;;;;;;;15.25;76.73;101367.75;5027594;28;20025;-71
2022/08/21 00:59:20;;;;;;;13.45;6.82;;;;;;;15.28;77.00;101365.53;5026311;28;20022;-73
2022/08/21 01:01:46;;;;;;;18.40;7.03;;;;;;;15.33;76.52;101368.59;5028517;28;20135;-72
2022/08/21 01:04:12;;;;;;;15.82;7.80;;;;;;;15.33;76.40;101373.19;5027470;28;20527;-71
2022/08/21 01:06:37;;;;;;;15.27;7.10;;;;;;;15.19;78.71;101372.03;5026192;28;20029;-72
2022/08/21 01:09:03;;;;;;;13.88;6.93;;;;;;;15.12;78.52;101376.50;5027830;28;20120;-71
2022/08/21 01:11:29;;;;;;;19.15;7.78;;;;;;;15.27;78.29;101363.84;5026975;28;20029;-71
2022/08/21 01:13:54;;;;;;;14.50;7.05;;;;;;;15.33;77.52;101368.59;5027362;28;20029;-74
2022/08/21 01:16:21;;;;;;;16.67;7.97;;;;;;;15.37;76.58;101374.53;5027995;28;20029;-71
2022/08/21 01:18:49;;;;;;;17.90;7.28;;;;;;;15.09;78.10;101366.81;5030199;28;20040;-71
2022/08/21 01:21:18;;;;;;;20.73;7.88;;;;;;;15.12;77.77;101371.03;5025602;28;20025;-71
2022/08/21 01:23:47;;;;;;;21.15;6.93;;;;;;;14.98;79.24;101369.03;5026141;28;20068;-71
2022/08/21 01:26:16;;;;;;;19.63;7.47;;;;;;;15.16;78.09;101372.41;5027103;28;20047;-72
2022/08/21 01:28:55;;;;;;;22.33;7.07;;;;;;;15.12;77.94;101373.75;5026779;28;20501;-71
2022/08/21 01:31:23;;;;;;;20.75;7.32;;;;;;;14.71;80.63;101373.88;5039996;28;20113;-71
2022/08/21 01:33:48;;;;;;;19.65;7.05;;;;;;;14.69;80.72;101375.94;5022404;28;20064;-72
2022/08/21 01:36:14;;;;;;;18.83;7.25;;;;;;;14.98;78.89;101374.50;5026879;28;20119;-71
2022/08/21 01:38:39;;;;;;;19.58;7.03;;;;;;;15.04;77.92;101374.66;5026587;28;20033;-72
2022/08/21 01:41:04;;;;;;;21.60;7.47;;;;;;;15.11;78.14;101380.25;5026945;28;20036;-71
2022/08/21 01:43:30;;;;;;;14.80;6.50;;;;;;;15.03;78.16;101372.09;5026117;28;20040;-71
2022/08/21 01:45:55;;;;;;;18.23;7.32;;;;;;;15.05;78.37;101372.78;5025546;28;20022;-72
2022/08/21 01:48:20;;;;;;;17.98;7.25;;;;;;;15.05;77.65;101370.03;5025235;28;20052;-71
2022/08/21 01:50:46;;;;;;;17.10;7.22;;;;;;;15.03;78.04;101374.84;5042907;28;20518;-71
2022/08/21 01:53:11;;;;;;;15.18;6.72;;;;;;;15.01;78.01;101368.72;5024979;28;20053;-72
2022/08/21 01:55:37;;;;;;;14.57;7.65;;;;;;;14.97;77.68;101367.34;5027900;28;20112;-72
2022/08/21 01:58:02;;;;;;;15.32;7.45;;;;;;;14.90;77.93;101362.59;5041778;28;20021;-72
2022/08/21 02:00:27;;;;;;;20.08;7.35;;;;;;;14.83;78.54;101374.38;5025467;28;20092;-72
2022/08/21 02:02:53;;;;;;;14.45;6.97;;;;;;;14.86;78.43;101366.69;5026444;28;20083;-72
2022/08/21 02:05:19;;;;;;;14.23;6.75;;;;;;;14.85;78.18;101370.44;5025371;28;20025;-71
2022/08/21 02:07:49;;;;;;;14.15;6.75;;;;;;;14.75;78.46;101363.50;5025415;28;20095;-71
2022/08/21 02:10:19;;;;;;;13.32;7.03;;;;;;;14.76;78.38;101366.03;5026350;28;20033;-71
2022/08/21 02:12:45;;;;;;;14.82;6.90;;;;;;;14.75;78.67;101364.34;5021687;28;20017;-71
2022/08/21 02:15:11;;;;;;;15.25;6.65;;;;;;;14.64;78.83;101367.41;5026804;28;20040;-72
2022/08/21 02:17:42;;;;;;;22.23;7.50;;;;;;;14.62;78.87;101369.47;5037092;28;20017;-71
2022/08/21 02:20:11;;;;;;;15.90;7.28;;;;;;;14.53;79.04;101370.50;5026600;28;20115;-72
2022/08/21 02:22:39;;;;;;;18.10;7.80;;;;;;;14.54;79.16;101373.06;5051774;22;20054;-70
2022/08/21 02:25:13;;;;;;;22.73;7.63;;;;;;;14.56;79.44;101370.16;5028322;28;20100;-71
2022/08/21 02:27:59;;;;;;;14.73;6.30;;;;;;;14.48;79.35;101362.00;5031715;28;20083;-72
2022/08/21 02:30:31;;;;;;;17.00;7.28;;;;;;;14.49;79.45;101370.00;5037170;28;20109;-71
2022/08/21 02:32:59;;;;;;;14.73;7.72;;;;;;;14.49;79.05;101369.16;5020511;28;20479;-71
2022/08/21 02:35:25;;;;;;;18.35;6.93;;;;;;;14.44;79.21;101372.34;5013309;28;20025;-71
2022/08/21 02:37:55;;;;;;;14.48;7.20;;;;;;;14.48;79.51;101370.19;5010520;28;20053;-71
2022/08/21 02:40:25;;;;;;;14.23;6.35;;;;;;;14.41;80.36;101367.25;5030625;28;20049;-72
2022/08/21 02:42:51;;;;;;;12.48;7.45;;;;;;;14.33;80.50;101370.81;5010269;28;20017;-71
2022/08/21 02:45:18;;;;;;;20.95;6.40;;;;;;;14.39;80.27;101364.69;5015794;28;20029;-71
2022/08/21 02:47:49;;;;;;;17.52;6.47;;;;;;;14.48;80.38;101367.47;5018224;28;20029;-71
2022/08/21 02:50:20;;;;;;;18.55;7.78;;;;;;;14.44;80.97;101363.31;5013852;28;20057;-71
2022/08/21 02:52:46;;;;;;;13.95;6.18;;;;;;;14.53;80.15;101359.59;5014517;28;20041;-71
2022/08/21 02:55:11;;;;;;;20.17;6.45;;;;;;;14.48;80.38;101362.84;5017452;28;20022;-71
2022/08/21 02:57:37;;;;;;;17.10;6.35;;;;;;;14.55;80.84;101352.13;5014095;28;20044;-72
2022/08/21 03:00:05;;;;;;;15.20;6.47;;;;;;;14.64;80.25;101351.06;5016639;28;20026;-71
2022/08/21 03:02:30;;;;;;;19.83;6.05;;;;;;;14.64;79.42;101345.63;5012950;28;20021;-70
2022/08/21 03:04:56;;;;;;;12.40;6.35;;;;;;;14.65;79.33;101350.03;5013937;28;20042;-71
2022/08/21 03:07:22;;;;;;;13.18;5.28;;;;;;;14.62;79.21;101347.69;5013828;28;20026;-70
2022/08/21 03:09:48;;;;;;;11.25;5.60;;;;;;;14.44;80.14;101356.00;5013857;28;20021;-71
2022/08/21 03:12:13;;;;;;;14.05;5.60;;;;;;;14.44;79.93;101344.25;5014365;28;20427;-70
2022/08/21 03:14:39;;;;;;;14.90;6.63;;;;;;;14.59;80.34;101348.00;5010731;28;20080;-72
2022/08/21 03:17:04;;;;;;;15.07;6.70;;;;;;;14.64;80.10;101345.63;5012716;28;20022;-71
2022/08/21 03:19:30;;;;;;;16.85;6.65;;;;;;;14.58;80.07;101346.31;5014802;28;20018;-71
2022/08/21 03:21:55;;;;;;;16.85;6.80;;;;;;;14.56;80.01;101342.91;5015046;28;20028;-70
2022/08/21 03:24:21;;;;;;;13.65;6.15;;;;;;;14.57;80.61;101344.63;5012883;28;20026;-71
2022/08/21 03:26:46;;;;;;;13.55;5.78;;;;;;;14.57;79.81;101344.63;5017260;28;20021;-71
2022/08/21 03:29:11;;;;;;;14.95;6.55;;;;;;;14.58;79.72;101346.31;5016331;28;20033;-71
2022/08/21 03:31:39;;;;;;;14.20;6.03;;;;;;;14.55;79.65;101352.97;5010173;28;20059;-72
2022/08/21 03:34:04;;;;;;;12.73;6.05;;;;;;;14.46;79.19;101344.94;5013736;28;20068;-71
2022/08/21 03:36:30;;;;;;;13.30;6.00;;;;;;;14.42;79.42;101346.31;5009772;28;20057;-71
2022/08/21 03:38:55;;;;;;;13.05;6.05;;;;;;;14.47;79.95;101352.09;5015063;28;20097;-71
2022/08/21 03:41:21;;;;;;;18.08;6.20;;;;;;;14.46;80.33;101342.19;5010858;28;20030;-72
2022/08/21 03:43:46;;;;;;;16.67;6.35;;;;;;;14.45;79.91;101346.81;5013792;28;20144;-72
2022/08/21 03:46:12;;;;;;;12.65;5.88;;;;;;;14.44;79.61;101349.72;5007727;28;20034;-71
2022/08/21 03:48:38;;;;;;;16.35;5.53;;;;;;;14.43;79.95;101342.56;5016956;28;20480;-71
2022/08/21 03:51:03;;;;;;;16.33;6.45;;;;;;;14.39;79.83;101337.44;5012506;28;20021;-72
2022/08/21 03:53:30;;;;;;;18.20;6.43;;;;;;;14.35;80.33;101341.56;5010353;28;20061;-71
2022/08/21 03:55:56;;;;;;;15.23;6.22;;;;;;;14.05;82.28;101340.34;5015942;28;20092;-71
2022/08/21 03:58:24;;;;;;;18.73;6.93;;;;;;;14.06;82.87;101342.03;5015205;28;20665;-71
2022/08/21 04:00:53;;;;;;;14.25;6.88;;;;;;;14.22;82.11;101351.25;5014225;28;20041;-71
2022/08/21 04:03:19;;;;;;;17.25;7.00;;;;;;;14.20;81.28;101347.84;5015265;28;20022;-72
2022/08/21 04:05:46;;;;;;;14.40;6.03;;;;;;;14.12;81.43;101349.53;5018718;28;20072;-72
2022/08/21 04:08:12;;;;;;;16.50;6.55;;;;;;;14.12;81.80;101348.69;5011265;28;20044;-73
2022/08/21 04:10:38;;;;;;;14.68;6.57;;;;;;;14.22;81.31;101351.25;5017016;28;20099;-72
2022/08/21 04:13:05;;;;;;;13.07;6.55;;;;;;;14.21;81.50;101350.38;5010131;28;20084;-70
2022/08/21 04:15:30;;;;;;;16.63;6.18;;;;;;;14.14;80.87;101338.47;5016128;28;20025;-72
2022/08/21 04:17:56;;;;;;;13.13;5.78;;;;;;;14.11;81.52;101338.81;5012459;28;20022;-72
2022/08/21 04:20:22;;;;;;;18.10;5.53;;;;;;;14.18;81.08;101350.75;5018915;28;20018;-71
2022/08/21 04:22:50;;;;;;;20.08;5.60;;;;;;;14.06;80.59;101341.19;5016352;28;20014;-71
2022/08/21 04:25:16;;;;;;;16.77;5.90;;;;;;;14.09;80.52;101346.31;5014743;28;20060;-71
2022/08/21 04:27:45;;;;;;;14.70;5.80;;;;;;;14.18;80.67;101350.75;5022049;28;20036;-71
2022/08/21 04:30:12;;;;;;;16.77;6.60;;;;;;;14.17;80.92;101351.75;5017631;28;20033;-71
2022/08/21 04:32:38;;;;;;;18.25;7.07;;;;;;;13.99;82.08;101351.06;5019220;28;20025;-71
2022/08/21 04:35:08;;;;;;;14.43;6.38;;;;;;;14.15;81.92;101352.94;5019454;28;20021;-72
2022/08/21 04:37:34;;;;;;;15.35;5.32;;;;;;;14.14;81.41;101346.63;5016208;28;20103;-71
2022/08/21 04:40:00;;;;;;;13.82;5.55;;;;;;;14.17;81.31;101349.03;5018853;28;20119;-72
2022/08/21 04:42:27;;;;;;;14.95;6.15;;;;;;;14.36;81.38;101353.28;5022979;28;20052;-72
2022/08/21 04:44:53;;;;;;;13.38;5.60;;;;;;;14.48;80.88;101356.56;5018012;28;20045;-71
2022/08/21 04:47:18;;;;;;;14.95;5.50;;;;;;;14.56;80.81;101365.56;5013014;28;20022;-72
2022/08/21 04:49:45;;;;;;;15.73;5.38;;;;;;;14.64;80.38;101359.25;5019419;28;20030;-70
2022/08/21 04:52:13;;;;;;;10.18;5.00;;;;;;;14.73;80.64;101366.38;5021156;28;20022;-72
2022/08/21 04:54:39;;;;;;;12.80;5.70;;;;;;;14.81;80.13;101352.75;5016520;28;20100;-70
2022/08/21 04:57:08;;;;;;;11.02;5.50;;;;;;;14.88;80.46;101358.34;5017998;28;20072;-71
2022/08/21 04:59:44;;;;;;;13.45;5.75;;;;;;;14.87;80.54;101362.97;5023426;28;20030;-72
2022/08/21 05:02:10;;;;;;;16.63;6.00;;;;;;;14.89;80.81;101365.50;5014088;28;20021;-72
2022/08/21 05:04:41;;;;;;;17.80;5.53;;;;;;;14.89;80.97;101366.34;5005702;28;20041;-71
2022/08/21 05:07:12;;;;;;;10.68;5.68;;;;;;;14.96;80.79;101376.56;5015241;28;20051;-71
2022/08/21 05:09:38;;;;;;;10.88;4.90;;;;;;;15.16;79.76;101367.78;5015022;28;20034;-72
2022/08/21 05:12:05;;;;;;;18.30;5.15;;;;;;;15.24;79.45;101375.09;5012946;28;20049;-71
2022/08/21 05:14:30;;;;;;;11.85;5.05;;;;;;;15.39;79.28;101367.88;5020561;28;20100;-72
2022/08/21 05:16:56;;;;;;;12.93;5.55;;;;;;;15.36;79.43;101368.22;5014554;28;20172;-72
2022/08/21 05:19:23;;;;;;;16.52;5.07;;;;;;;15.51;78.81;101371.03;5013971;28;20036;-70
2022/08/21 05:21:48;;;;;;;17.77;5.00;;;;;;;15.45;78.99;101372.63;5019973;28;20101;-73
2022/08/21 05:24:14;;;;;;;9.90;5.15;;;;;;;15.64;78.44;101367.78;5016692;28;20029;-74
2022/08/21 05:26:40;;;;;;;13.48;5.10;;;;;;;15.73;78.24;101374.91;5015492;28;20053;-73
2022/08/21 05:29:06;;;;;;;13.40;4.70;;;;;;;15.83;77.51;101374.66;5016702;28;20029;-71
2022/08/21 05:31:32;;;;;;;14.10;4.90;;;;;;;15.62;78.10;101378.03;5015266;28;20107;-71
2022/08/21 05:33:57;;;;;;;12.05;4.88;;;;;;;15.47;78.89;101376.03;5019020;28;20060;-71
2022/08/21 05:36:23;;;;;;;19.17;4.10;;;;;;;15.62;78.56;101378.03;5016122;28;20033;-72
2022/08/21 05:38:49;;;;;;;12.60;5.07;;;;;;;15.58;77.90;101382.09;5018307;28;20033;-71
2022/08/21 05:41:15;;;;;;;14.32;4.55;;;;;;;15.72;77.73;101384.97;5012146;28;20163;-70
2022/08/21 05:43:43;;;;;;;15.55;4.60;;;;;;;15.86;77.15;101377.03;5012725;28;20461;-71
2022/08/21 05:46:09;;;;;;;13.00;4.70;;;;;;;15.77;77.17;101378.94;5010840;28;20018;-71
2022/08/21 05:48:36;;;;;;;9.60;4.40;;;;;;;16.01;76.73;101373.34;5018059;28;20083;-70
2022/08/21 05:51:08;;;;;;;10.18;4.20;;;;;;;15.91;76.71;101374.59;5016626;28;20037;-69
2022/08/21 05:53:33;;;;;;;11.00;4.10;;;;;;;15.80;77.02;101375.88;5015193;28;20155;-71
2022/08/21 05:55:58;;;;;;;12.38;4.18;;;;;;;15.93;76.80;101373.41;5017690;28;20101;-71
2022/08/21 05:58:24;;;;;;;13.75;4.30;;;;;;;15.88;77.27;101378.53;5015128;28;20112;-72
2022/08/21 06:00:51;;;;;;;12.65;3.92;;;;;;;16.12;76.26;101366.59;5011942;28;20112;-69
2022/08/21 06:03:24;;;;;;;17.85;4.45;;;;;;;16.20;75.74;101376.63;5014786;28;20464;-71
2022/08/21 06:05:49;;;;;;;13.18;3.92;;;;;;;16.27;75.37;101377.59;5015100;28;20091;-71
2022/08/21 06:08:17;;;;;;;15.27;5.28;;;;;;;16.47;74.32;101370.56;5015289;28;20117;-71
2022/08/21 06:10:44;;;;;;;13.15;3.92;;;;;;;16.34;74.51;101372.22;5019100;28;20034;-71
2022/08/21 06:13:09;;;;;;;10.70;4.75;;;;;;;16.28;75.33;101373.81;5014325;28;20018;-71
2022/08/21 06:15:35;;;;;;;14.18;4.35;;;;;;;16.27;75.16;101372.13;5014783;28;20032;-71
2022/08/21 06:18:00;;;;;;;13.18;4.20;;;;;;;16.33;75.11;101370.53;5031468;28;20127;-71
2022/08/21 06:20:26;;;;;;;12.57;3.78;;;;;;;16.63;74.05;101376.94;5015355;28;20079;-72
2022/08/21 06:22:52;;;;;;;15.07;3.58;;;;;;;16.66;74.02;101380.13;5015947;28;20048;-72
2022/08/21 06:25:18;;;;;;;14.40;4.53;;;;;;;16.96;73.37;101382.97;5011632;28;20081;-71
2022/08/21 06:27:44;;;;;;;8.65;3.95;;;;;;;17.09;72.79;101377.69;5010252;28;20022;-72
2022/08/21 06:30:10;;;;;;;14.68;3.90;;;;;;;17.16;72.60;101377.78;5017713;28;20608;-71
2022/08/21 06:32:36;;;;;;;11.82;4.22;;;;;;;17.06;72.81;101373.41;5021538;28;20077;-72
2022/08/21 06:35:02;;;;;;;9.98;3.50;;;;;;;17.00;73.18;101374.16;5019125;28;20021;-71
2022/08/21 06:37:28;;;;;;;13.95;3.80;;;;;;;17.16;72.43;101383.25;5014108;28;20029;-72
2022/08/21 06:39:53;;;;;;;5.88;3.15;;;;;;;17.13;72.78;101378.13;5015038;28;20033;-71
2022/08/21 06:42:19;;;;;;;9.88;3.60;;;;;;;17.30;72.09;101379.66;5013999;28;20103;-72
2022/08/21 06:44:45;;;;;;;14.05;3.45;;;;;;;17.28;71.85;101381.72;5012177;28;20033;-71
2022/08/21 06:47:11;;;;;;;10.57;3.20;;;;;;;17.39;71.01;101373.00;5012353;28;20063;-71
2022/08/21 06:49:36;;;;;;;13.50;3.35;;;;;;;17.41;71.14;101376.44;5016585;28;20124;-71
2022/08/21 06:52:03;;;;;;;15.00;3.88;;;;;;;17.19;71.83;101377.38;5013649;28;20021;-72
2022/08/21 06:54:29;;;;;;;10.88;3.40;;;;;;;17.29;71.21;101372.47;5015278;28;20026;-72
2022/08/21 06:56:55;;;;;;;9.85;3.60;;;;;;;17.06;71.29;101367.94;5015168;28;20029;-71
2022/08/21 06:59:20;;;;;;;13.02;3.60;;;;;;;17.22;70.31;101366.06;5017551;28;20018;-71
2022/08/21 07:01:46;;;;;;;12.38;3.10;;;;;;;17.55;69.47;101367.34;5017744;28;20465;-72
2022/08/21 07:04:12;;;;;;;12.82;3.00;;;;;;;17.63;68.27;101369.97;5016526;28;20037;-71
2022/08/21 07:06:38;;;;;;;9.68;2.92;;;;;;;17.89;67.60;101363.13;5015489;28;20045;-72
2022/08/21 07:09:04;;;;;;;10.52;2.67;;;;;;;18.12;65.72;101366.50;5010056;28;20018;-72
2022/08/21 07:11:29;;;;;;;21.95;2.67;;;;;;;18.00;65.00;101364.50;5015008;28;20028;-71
2022/08/21 07:13:56;;;;;;;13.38;2.90;;;;;;;18.31;63.94;101355.94;5015099;28;20435;-73
2022/08/21 07:16:22;;;;;;;6.38;2.72;;;;;;;18.32;63.34;101358.50;5015773;28;20036;-73
2022/08/21 07:18:49;;;;;;;11.93;3.05;;;;;;;18.28;63.13;101346.22;5016666;28;20021;-72
2022/08/21 07:21:15;;;;;;;13.13;3.00;;;;;;;17.96;63.52;101353.06;5013193;28;20097;-70
2022/08/21 07:23:44;;;;;;;5.80;2.13;;;;;;;18.40;62.84;101360.25;5014108;28;20040;-72
2022/08/21 07:26:11;;;;;;;9.15;2.90;;;;;;;18.36;63.19;101342.47;5013519;28;20026;-72
2022/08/21 07:28:37;;;;;;;14.60;3.05;;;;;;;18.30;62.19;101343.28;5016906;28;20033;-72
2022/08/21 07:31:03;;;;;;;9.20;2.83;;;;;;;18.56;62.07;101343.50;5006556;28;20033;-73
2022/08/21 07:33:31;;;;;;;7.60;2.15;;;;;;;18.97;61.47;101340.00;5006980;28;20495;-71
2022/08/21 07:35:57;;;;;;;8.07;2.50;;;;;;;19.22;60.53;101337.59;5005974;28;20423;-73
2022/08/21 07:38:23;;;;;;;10.45;2.65;;;;;;;19.53;59.04;101328.84;5009204;28;20017;-71
2022/08/21 07:40:52;;;;;;;7.97;2.55;;;;;;;19.44;59.09;101330.09;5011516;28;20032;-72
2022/08/21 07:43:17;;;;;;;8.70;2.50;;;;;;;19.52;58.92;101327.16;5011872;28;20026;-71
2022/08/21 07:45:44;;;;;;;8.15;2.03;;;;;;;19.51;59.24;101336.47;5008178;28;20040;-71
2022/08/21 07:48:11;;;;;;;10.25;2.10;;;;;;;19.91;57.92;101342.09;5007145;28;20036;-72
2022/08/21 07:50:36;;;;;;;17.02;2.80;;;;;;;20.08;58.00;101332.38;5012214;28;20112;-72
2022/08/21 07:53:03;;;;;;;8.82;2.60;;;;;;;20.06;58.11;101326.25;5008374;28;20160;-72
2022/08/21 07:55:29;;;;;;;7.38;2.05;;;;;;;20.17;57.47;101331.16;5009937;28;20066;-72
2022/08/21 07:57:54;;;;;;;8.30;2.47;;;;;;;19.67;58.80;101325.13;5007520;28;20022;-71
2022/08/21 08:00:27;;;;;;;12.35;2.55;;;;;;;19.93;57.98;101329.00;5006377;28;20032;-71
2022/08/21 08:02:54;;;;;;;9.68;2.78;;;;;;;20.42;56.37;101322.28;5012798;28;20014;-71
2022/08/21 08:05:23;;;;;;;11.23;2.78;;;;;;;20.66;56.61;101324.38;5016823;28;20068;-71
2022/08/21 08:07:49;;;;;;;7.95;2.38;;;;;;;20.92;55.92;101328.16;5019332;28;20025;-72
2022/08/21 08:10:17;;;;;;;8.10;2.70;;;;;;;20.80;54.65;101320.56;5013400;28;20065;-71
2022/08/21 08:12:44;;;;;;;8.57;2.20;;;;;;;21.25;53.70;101323.38;5007933;28;20058;-71
2022/08/21 08:15:14;;;;;;;13.85;3.08;;;;;;;21.21;53.83;101322.13;5015682;28;20053;-72
2022/08/21 08:17:40;;;;;;;25.10;3.03;;;;;;;21.61;52.88;101322.81;5009851;28;20017;-72
2022/08/21 08:20:08;;;;;;;10.18;2.63;;;;;;;21.26;54.33;101319.59;5005836;28;20044;-73
2022/08/21 08:22:35;;;;;;;7.05;2.47;;;;;;;20.72;55.40;101323.53;5009916;28;20026;-74
2022/08/21 08:25:01;;;;;;;7.32;2.25;;;;;;;20.91;54.94;101315.44;5004295;28;20033;-71
2022/08/21 08:27:28;;;;;;;8.05;2.40;;;;;;;21.32;53.98;101318.75;5013961;28;20026;-73
2022/08/21 08:29:54;;;;;;;8.57;2.72;;;;;;;21.24;53.68;101316.19;5009823;28;20025;-72
2022/08/21 08:32:20;;;;;;;10.00;2.78;;;;;;;21.53;53.76;101314.81;5005539;28;20029;-72
2022/08/21 08:34:52;;;;;;;6.88;2.33;;;;;;;21.73;53.53;101314.72;5005342;28;20029;-73
2022/08/21 08:37:20;;;;;;;9.10;2.75;;;;;;;21.48;53.36;101316.53;5012574;28;20068;-73
2022/08/21 08:39:46;;;;;;;10.90;2.53;;;;;;;21.69;53.66;101318.97;5004916;28;20082;-73
2022/08/21 08:42:21;;;;;;;16.40;2.75;;;;;;;22.21;52.12;101311.44;5013535;28;20121;-73
2022/08/21 08:45:02;;;;;;;10.23;2.90;;;;;;;22.20;52.27;101315.25;5010944;28;20021;-71
2022/08/21 08:47:38;;;;;;;5.03;2.13;;;;;;;22.23;52.05;101303.75;5009211;28;20030;-71
2022/08/21 08:50:16;;;;;;;8.20;2.50;;;;;;;22.61;52.25;101308.31;5013647;28;20033;-71
2022/08/21 08:52:49;;;;;;;11.05;2.40;;;;;;;22.18;53.02;101300.84;5010689;28;20030;-72
2022/08/21 08:55:26;;;;;;;7.97;2.67;;;;;;;22.54;52.56;101305.63;5023430;28;20553;-71
2022/08/21 08:57:54;;;;;;;10.88;3.28;;;;;;;22.70;51.55;101304.19;5013217;28;20045;-72
2022/08/21 09:00:22;;;;;;;10.52;2.60;;;;;;;22.63;52.17;101314.47;5010485;28;20033;-72
2022/08/21 09:02:54;;;;;;;10.73;2.97;;;;;;;22.69;51.45;101302.50;5009607;28;20117;-71
2022/08/21 09:05:43;;;;;;;10.77;3.47;;;;;;;23.01;50.99;101295.78;5013054;28;20049;-72
2022/08/21 09:08:44;;;;;;;18.98;3.45;;;;;;;23.08;50.94;101297.63;5011144;28;20030;-73
2022/08/21 09:11:17;;;;;;;10.50;2.80;;;;;;;23.10;50.59;101292.75;5018029;28;20033;-73
2022/08/21 09:14:17;;;;;;;10.50;2.72;;;;;;;22.93;51.90;101293.34;5014946;28;20021;-72
2022/08/21 09:16:42;;;;;;;9.32;2.85;;;;;;;23.02;51.30;101291.97;5013357;28;20022;-73
2022/08/21 09:19:26;;;;;;;10.90;3.03;;;;;;;23.22;50.83;101293.66;5016717;28;20026;-72
2022/08/21 09:22:03;;;;;;;15.25;3.40;;;;;;;23.19;50.38;101291.34;5010379;28;20152;-71
2022/08/21 09:24:42;;;;;;;12.05;3.38;;;;;;;22.94;51.53;101286.75;5011068;28;20047;-73
2022/08/21 09:27:14;;;;;;;14.85;3.63;;;;;;;22.62;51.31;101290.69;5011361;28;20534;-70
2022/08/21 09:29:44;;;;;;;12.52;2.80;;;;;;;22.27;52.65;101293.97;5014695;28;20029;-71
2022/08/21 09:32:19;;;;;;;15.07;3.17;;;;;;;22.54;51.60;101277.19;5016078;28;20033;-73
2022/08/21 09:34:57;;;;;;;19.42;3.70;;;;;;;23.02;50.85;101275.41;5014741;28;20372;-72
2022/08/21 09:37:23;;;;;;;10.48;3.47;;;;;;;23.28;50.38;101270.63;5019379;28;20022;-72
2022/08/21 09:39:50;;;;;;;11.32;3.35;;;;;;;23.84;48.93;101269.41;5015227;28;20037;-73
2022/08/21 09:42:28;;;;;;;11.20;3.60;;;;;;;23.70;48.89;101270.69;5015634;28;20041;-73
2022/08/21 09:45:26;;;;;;;14.00;3.63;;;;;;;23.58;48.18;101272.53;5011308;28;20025;-74
2022/08/21 09:47:52;;;;;;;12.40;3.13;;;;;;;24.21;46.89;101269.25;4982833;28;20038;-73
2022/08/21 09:50:24;;;;;;;13.00;3.70;;;;;;;23.79;47.37;101281.19;5013713;28;20032;-73
2022/08/21 09:52:58;;;;;;;16.70;3.90;;;;;;;23.75;47.99;101268.91;5016506;28;20042;-73
2022/08/21 09:58:35;;;;;;;17.35;3.10;;;;;;;24.53;46.50;101273.41;5013361;28;20025;-73
2022/08/21 10:01:09;;;;;;;25.25;4.18;;;;;;;24.74;45.26;101271.09;5010625;28;20025;-76
2022/08/21 10:03:35;;;;;;;19.23;4.13;;;;;;;24.00;46.91;101282.59;5002800;28;20018;-71
2022/08/21 10:06:08;;;;;;;16.23;4.13;;;;;;;23.74;48.51;101277.47;5015227;28;20036;-73
2022/08/21 10:08:35;;;;;;;16.00;3.42;;;;;;;23.79;47.62;101274.81;5018138;28;20021;-72
2022/08/21 10:11:11;;;;;;;18.70;3.95;;;;;;;23.18;48.51;101278.63;5013427;28;20329;-73
2022/08/21 10:13:59;;;;;;;13.13;2.92;;;;;;;23.05;48.83;101278.78;5011236;28;20033;-73
2022/08/21 10:16:43;;;;;;;14.27;3.67;;;;;;;23.15;49.62;101276.31;5014495;28;20032;-74
2022/08/21 10:19:24;;;;;;;13.77;3.90;;;;;;;23.43;49.25;101276.59;5020695;28;20121;-73
2022/08/21 10:22:14;;;;;;;21.03;3.93;;;;;;;23.27;49.75;101282.72;5001137;28;20034;-72
2022/08/21 10:24:52;;;;;;;12.40;3.50;;;;;;;23.09;50.40;101271.72;5005483;28;20268;-71
2022/08/21 10:27:55;;;;;;;11.43;3.42;;;;;;;23.91;48.97;101278.44;5016693;28;20063;-72
2022/08/21 10:30:39;;;;;;;15.85;4.05;;;;;;;23.56;48.78;101273.63;5013501;28;20029;-73
2022/08/21 10:33:19;;;;;;;23.70;3.17;;;;;;;23.87;49.07;101282.78;5013855;28;20484;-74
2022/08/21 10:36:02;;;;;;;13.32;3.80;;;;;;;23.86;49.02;101280.22;5014049;28;20054;-71
2022/08/21 10:38:44;;;;;;;25.23;4.00;;;;;;;23.67;49.05;101282.22;5014940;28;20030;-72
2022/08/21 10:41:19;;;;;;;;;;;;;;;24.18;47.89;101266.94;5016080;28;20036;-72
2022/08/21 10:44:23;;;;;;;14.05;3.33;;;;;;;24.48;47.11;101273.25;5009008;28;19926;-73
2022/08/21 10:47:12;;;;;;;16.13;3.90;;;;;;;24.68;47.17;101277.59;5009606;28;20113;-74
2022/08/21 10:49:52;;;;;;;15.93;3.67;;;;;;;24.37;47.96;101276.88;5018391;28;20044;-73
2022/08/21 10:52:44;;;;;;;9.80;2.95;;;;;;;24.36;48.16;101266.88;5013717;28;20034;-73
2022/08/21 10:55:20;;;;;;;14.27;3.85;;;;;;;24.75;46.34;101264.47;5014397;28;20083;-73
2022/08/21 10:58:04;;;;;;;12.98;3.60;;;;;;;24.78;46.63;101272.31;5016102;28;20040;-73
2022/08/21 11:00:40;;;;;;;13.15;3.10;;;;;;;24.78;45.55;101261.22;5014106;28;20033;-74
2022/08/21 11:03:20;;;;;;;20.75;4.05;;;;;;;24.44;45.26;101272.06;5011679;28;20398;-74
2022/08/21 11:05:54;;;;;;;12.98;3.05;;;;;;;24.62;44.67;101269.16;5014665;28;20109;-74
2022/08/21 11:08:32;;;;;;;9.02;2.80;;;;;;;24.99;44.39;101263.34;5014745;28;20030;-74
2022/08/21 11:11:33;;;;;;;12.63;2.92;;;;;;;25.50;41.54;101258.88;5010892;28;20036;-73
2022/08/21 11:14:17;;;;;;;8.15;2.85;;;;;;;25.77;42.17;101267.44;5010882;28;20017;-73
2022/08/21 11:16:53;;;;;;;9.98;3.08;;;;;;;24.85;42.37;101270.25;5026770;28;20048;-73
2022/08/21 11:19:33;;;;;;;9.90;2.72;;;;;;;23.93;44.99;101275.44;5006941;28;20030;-74
2022/08/21 11:22:13;;;;;;;10.18;3.00;;;;;;;24.84;42.45;101268.53;5012755;28;20041;-74
2022/08/21 11:25:16;;;;;;;9.15;2.50;;;;;;;25.67;41.56;101270.81;5013481;28;20026;-75
2022/08/21 11:28:02;;;;;;;9.93;2.78;;;;;;;24.23;44.36;101280.91;5011056;28;20541;-73
2022/08/21 11:31:17;;;;;;;12.95;3.47;;;;;;;24.63;43.28;101270.84;5011443;28;20098;-73
2022/08/21 11:34:30;;;;;;;;;;;;;;;;;;;;;